sensor_id;sensor_type;location;lat;lon;timestamp;P1;durP1;ratioP1;P2;durP2;ratioP2
4397;SDS011;2213;49.720;7.296;2022-12-05T00:00:10;6.47;;;4.43;;
4397;SDS011;2213;49.720;7.296;2022-12-05T00:02:42;5.00;;;3.40;;
4397;SDS011;2213;49.720;7.296;2022-12-05T00:05:13;4.43;;;3.50;;
4397;SDS011;2213;49.720;7.296;2022-12-05T00:07:44;4.30;;;2.73;;
4397;SDS011;2213;49.720;7.296;2022-12-05T00:10:14;4.47;;;3.27;;
4397;SDS011;2213;49.720;7.296;2022-12-05T00:12:43;4.13;;;3.30;;
4397;SDS011;2213;49.720;7.296;2022-12-05T00:15:12;5.30;;;3.50;;
4397;SDS011;2213;49.720;7.296;2022-12-05T00:17:43;4.50;;;3.30;;
4397;SDS011;2213;49.720;7.296;2022-12-05T00:20:12;4.03;;;2.77;;
4397;SDS011;2213;49.720;7.296;2022-12-05T00:22:43;4.30;;;2.93;;
4397;SDS011;2213;49.720;7.296;2022-12-05T00:25:13;3.80;;;2.87;;
4397;SDS011;2213;49.720;7.296;2022-12-05T00:27:43;4.23;;;2.97;;
4397;SDS011;2213;49.720;7.296;2022-12-05T00:30:13;4.97;;;3.67;;
4397;SDS011;2213;49.720;7.296;2022-12-05T00:32:44;5.10;;;3.40;;
4397;SDS011;2213;49.720;7.296;2022-12-05T00:35:14;4.97;;;3.03;;
4397;SDS011;2213;49.720;7.296;2022-12-05T00:37:44;5.27;;;3.63;;
4397;SDS011;2213;49.720;7.296;2022-12-05T00:40:12;3.97;;;2.70;;
4397;SDS011;2213;49.720;7.296;2022-12-05T00:42:42;4.53;;;3.20;;
4397;SDS011;2213;49.720;7.296;2022-12-05T00:45:18;3.77;;;3.20;;
4397;SDS011;2213;49.720;7.296;2022-12-05T00:47:48;6.10;;;3.57;;
4397;SDS011;2213;49.720;7.296;2022-12-05T00:50:18;5.77;;;3.50;;
4397;SDS011;2213;49.720;7.296;2022-12-05T00:52:48;3.63;;;2.90;;
4397;SDS011;2213;49.720;7.296;2022-12-05T00:55:18;4.90;;;3.23;;
4397;SDS011;2213;49.720;7.296;2022-12-05T00:57:47;4.87;;;3.23;;
4397;SDS011;2213;49.720;7.296;2022-12-05T01:00:17;7.27;;;4.00;;
4397;SDS011;2213;49.720;7.296;2022-12-05T01:02:49;5.00;;;3.10;;
4397;SDS011;2213;49.720;7.296;2022-12-05T01:05:20;5.30;;;3.40;;
4397;SDS011;2213;49.720;7.296;2022-12-05T01:07:49;3.27;;;2.90;;
4397;SDS011;2213;49.720;7.296;2022-12-05T01:10:19;5.20;;;3.50;;
4397;SDS011;2213;49.720;7.296;2022-12-05T01:12:49;4.17;;;3.30;;
4397;SDS011;2213;49.720;7.296;2022-12-05T01:15:18;3.60;;;2.90;;
4397;SDS011;2213;49.720;7.296;2022-12-05T01:17:49;3.90;;;2.90;;
4397;SDS011;2213;49.720;7.296;2022-12-05T01:20:18;3.93;;;2.63;;
4397;SDS011;2213;49.720;7.296;2022-12-05T01:22:49;4.90;;;3.20;;
4397;SDS011;2213;49.720;7.296;2022-12-05T01:25:19;4.60;;;3.33;;
4397;SDS011;2213;49.720;7.296;2022-12-05T01:27:49;6.40;;;3.80;;
4397;SDS011;2213;49.720;7.296;2022-12-05T01:30:18;5.50;;;3.50;;
4397;SDS011;2213;49.720;7.296;2022-12-05T01:32:47;5.00;;;3.33;;
4397;SDS011;2213;49.720;7.296;2022-12-05T01:35:18;4.07;;;3.17;;
4397;SDS011;2213;49.720;7.296;2022-12-05T01:37:47;6.30;;;3.07;;
4397;SDS011;2213;49.720;7.296;2022-12-05T01:40:16;4.23;;;3.13;;
4397;SDS011;2213;49.720;7.296;2022-12-05T01:42:46;4.23;;;3.17;;
4397;SDS011;2213;49.720;7.296;2022-12-05T01:45:17;6.97;;;3.23;;
4397;SDS011;2213;49.720;7.296;2022-12-05T01:47:55;4.67;;;3.50;;
4397;SDS011;2213;49.720;7.296;2022-12-05T01:50:25;5.13;;;3.50;;
4397;SDS011;2213;49.720;7.296;2022-12-05T01:52:54;5.37;;;3.83;;
4397;SDS011;2213;49.720;7.296;2022-12-05T01:55:25;5.40;;;4.30;;
4397;SDS011;2213;49.720;7.296;2022-12-05T01:57:55;5.60;;;3.13;;
4397;SDS011;2213;49.720;7.296;2022-12-05T02:00:25;7.20;;;4.20;;
4397;SDS011;2213;49.720;7.296;2022-12-05T02:02:57;8.50;;;4.13;;
4397;SDS011;2213;49.720;7.296;2022-12-05T02:05:31;5.10;;;3.40;;
4397;SDS011;2213;49.720;7.296;2022-12-05T02:08:04;6.50;;;4.10;;
4397;SDS011;2213;49.720;7.296;2022-12-05T02:10:38;4.43;;;3.47;;
4397;SDS011;2213;49.720;7.296;2022-12-05T02:13:16;4.87;;;3.13;;
4397;SDS011;2213;49.720;7.296;2022-12-05T02:16:05;4.77;;;3.53;;
4397;SDS011;2213;49.720;7.296;2022-12-05T02:18:50;4.80;;;3.10;;
4397;SDS011;2213;49.720;7.296;2022-12-05T02:21:47;5.17;;;3.87;;
4397;SDS011;2213;49.720;7.296;2022-12-05T02:25:10;5.37;;;3.47;;
4397;SDS011;2213;49.720;7.296;2022-12-05T02:28:30;3.90;;;3.13;;
4397;SDS011;2213;49.720;7.296;2022-12-05T02:31:26;4.37;;;3.60;;
4397;SDS011;2213;49.720;7.296;2022-12-05T02:34:04;4.80;;;3.57;;
4397;SDS011;2213;49.720;7.296;2022-12-05T02:36:43;3.50;;;3.10;;
4397;SDS011;2213;49.720;7.296;2022-12-05T02:39:23;4.40;;;3.43;;
4397;SDS011;2213;49.720;7.296;2022-12-05T02:42:03;5.30;;;3.37;;
4397;SDS011;2213;49.720;7.296;2022-12-05T02:44:44;5.83;;;3.57;;
4397;SDS011;2213;49.720;7.296;2022-12-05T02:47:20;5.57;;;3.20;;
4397;SDS011;2213;49.720;7.296;2022-12-05T02:49:57;4.70;;;3.13;;
4397;SDS011;2213;49.720;7.296;2022-12-05T02:52:26;5.60;;;3.63;;
4397;SDS011;2213;49.720;7.296;2022-12-05T02:54:58;5.00;;;3.20;;
4397;SDS011;2213;49.720;7.296;2022-12-05T02:57:30;5.60;;;3.10;;
4397;SDS011;2213;49.720;7.296;2022-12-05T03:00:01;8.77;;;3.23;;
4397;SDS011;2213;49.720;7.296;2022-12-05T03:02:33;5.10;;;3.57;;
4397;SDS011;2213;49.720;7.296;2022-12-05T03:05:08;5.20;;;3.10;;
4397;SDS011;2213;49.720;7.296;2022-12-05T03:07:47;4.50;;;3.37;;
4397;SDS011;2213;49.720;7.296;2022-12-05T03:10:23;7.07;;;3.50;;
4397;SDS011;2213;49.720;7.296;2022-12-05T03:12:59;4.97;;;3.63;;
4397;SDS011;2213;49.720;7.296;2022-12-05T03:15:38;4.03;;;3.33;;
4397;SDS011;2213;49.720;7.296;2022-12-05T03:18:16;6.30;;;3.67;;
4397;SDS011;2213;49.720;7.296;2022-12-05T03:20:52;6.30;;;3.43;;
4397;SDS011;2213;49.720;7.296;2022-12-05T03:23:29;5.20;;;3.40;;
4397;SDS011;2213;49.720;7.296;2022-12-05T03:26:05;6.10;;;4.23;;
4397;SDS011;2213;49.720;7.296;2022-12-05T03:28:48;5.33;;;3.40;;
4397;SDS011;2213;49.720;7.296;2022-12-05T03:31:33;5.93;;;3.50;;
4397;SDS011;2213;49.720;7.296;2022-12-05T03:34:13;5.90;;;4.07;;
4397;SDS011;2213;49.720;7.296;2022-12-05T03:36:51;8.97;;;3.40;;
4397;SDS011;2213;49.720;7.296;2022-12-05T03:39:22;6.57;;;3.97;;
4397;SDS011;2213;49.720;7.296;2022-12-05T03:41:57;4.80;;;3.13;;
4397;SDS011;2213;49.720;7.296;2022-12-05T03:44:37;4.90;;;3.57;;
4397;SDS011;2213;49.720;7.296;2022-12-05T03:47:18;5.03;;;3.60;;
4397;SDS011;2213;49.720;7.296;2022-12-05T03:49:57;5.37;;;3.80;;
4397;SDS011;2213;49.720;7.296;2022-12-05T03:52:35;4.73;;;3.80;;
4397;SDS011;2213;49.720;7.296;2022-12-05T03:55:32;5.20;;;3.43;;
4397;SDS011;2213;49.720;7.296;2022-12-05T03:58:06;5.47;;;4.10;;
4397;SDS011;2213;49.720;7.296;2022-12-05T04:00:44;5.13;;;4.03;;
4397;SDS011;2213;49.720;7.296;2022-12-05T04:03:20;4.87;;;3.67;;
4397;SDS011;2213;49.720;7.296;2022-12-05T04:06:07;8.13;;;4.23;;
4397;SDS011;2213;49.720;7.296;2022-12-05T04:08:46;6.20;;;3.93;;
4397;SDS011;2213;49.720;7.296;2022-12-05T04:11:21;3.70;;;3.13;;
4397;SDS011;2213;49.720;7.296;2022-12-05T04:13:55;5.80;;;3.57;;
4397;SDS011;2213;49.720;7.296;2022-12-05T04:16:32;4.20;;;3.63;;
4397;SDS011;2213;49.720;7.296;2022-12-05T04:19:28;9.00;;;3.80;;
4397;SDS011;2213;49.720;7.296;2022-12-05T04:22:27;3.70;;;3.40;;
4397;SDS011;2213;49.720;7.296;2022-12-05T04:24:57;6.90;;;4.00;;
4397;SDS011;2213;49.720;7.296;2022-12-05T04:27:47;5.70;;;3.63;;
4397;SDS011;2213;49.720;7.296;2022-12-05T04:30:27;4.80;;;3.57;;
4397;SDS011;2213;49.720;7.296;2022-12-05T04:33:07;3.23;;;2.93;;
4397;SDS011;2213;49.720;7.296;2022-12-05T04:35:44;5.40;;;3.33;;
4397;SDS011;2213;49.720;7.296;2022-12-05T04:38:24;5.17;;;3.80;;
4397;SDS011;2213;49.720;7.296;2022-12-05T04:40:59;4.60;;;2.90;;
4397;SDS011;2213;49.720;7.296;2022-12-05T04:43:33;4.00;;;3.27;;
4397;SDS011;2213;49.720;7.296;2022-12-05T04:46:08;5.90;;;4.30;;
4397;SDS011;2213;49.720;7.296;2022-12-05T04:48:41;4.03;;;3.23;;
4397;SDS011;2213;49.720;7.296;2022-12-05T04:51:16;5.10;;;3.83;;
4397;SDS011;2213;49.720;7.296;2022-12-05T04:53:52;6.27;;;3.20;;
4397;SDS011;2213;49.720;7.296;2022-12-05T04:56:26;3.57;;;2.83;;
4397;SDS011;2213;49.720;7.296;2022-12-05T04:58:59;4.50;;;3.37;;
4397;SDS011;2213;49.720;7.296;2022-12-05T05:01:29;6.43;;;3.70;;
4397;SDS011;2213;49.720;7.296;2022-12-05T05:04:08;3.73;;;2.63;;
4397;SDS011;2213;49.720;7.296;2022-12-05T05:06:44;4.53;;;3.33;;
4397;SDS011;2213;49.720;7.296;2022-12-05T05:09:14;4.00;;;3.30;;
4397;SDS011;2213;49.720;7.296;2022-12-05T05:11:43;7.37;;;3.83;;
4397;SDS011;2213;49.720;7.296;2022-12-05T05:14:15;3.53;;;3.00;;
4397;SDS011;2213;49.720;7.296;2022-12-05T05:16:43;4.47;;;2.77;;
4397;SDS011;2213;49.720;7.296;2022-12-05T05:19:14;3.30;;;2.60;;
4397;SDS011;2213;49.720;7.296;2022-12-05T05:21:44;5.70;;;3.30;;
4397;SDS011;2213;49.720;7.296;2022-12-05T05:24:16;5.60;;;3.63;;
4397;SDS011;2213;49.720;7.296;2022-12-05T05:26:47;4.23;;;3.30;;
4397;SDS011;2213;49.720;7.296;2022-12-05T05:29:22;5.03;;;3.30;;
4397;SDS011;2213;49.720;7.296;2022-12-05T05:31:51;3.53;;;3.20;;
4397;SDS011;2213;49.720;7.296;2022-12-05T05:34:21;3.63;;;3.30;;
4397;SDS011;2213;49.720;7.296;2022-12-05T05:36:51;8.50;;;4.13;;
4397;SDS011;2213;49.720;7.296;2022-12-05T05:39:22;5.20;;;3.33;;
4397;SDS011;2213;49.720;7.296;2022-12-05T05:41:55;4.63;;;3.37;;
4397;SDS011;2213;49.720;7.296;2022-12-05T05:44:24;7.03;;;3.90;;
4397;SDS011;2213;49.720;7.296;2022-12-05T05:46:53;5.27;;;3.50;;
4397;SDS011;2213;49.720;7.296;2022-12-05T05:49:22;5.17;;;3.50;;
4397;SDS011;2213;49.720;7.296;2022-12-05T05:51:53;9.60;;;3.87;;
4397;SDS011;2213;49.720;7.296;2022-12-05T05:54:24;3.40;;;3.10;;
4397;SDS011;2213;49.720;7.296;2022-12-05T05:56:54;6.70;;;3.70;;
4397;SDS011;2213;49.720;7.296;2022-12-05T05:59:24;8.10;;;3.90;;
4397;SDS011;2213;49.720;7.296;2022-12-05T06:01:53;5.50;;;2.43;;
4397;SDS011;2213;49.720;7.296;2022-12-05T06:04:23;5.47;;;4.20;;
4397;SDS011;2213;49.720;7.296;2022-12-05T06:06:54;5.77;;;3.83;;
4397;SDS011;2213;49.720;7.296;2022-12-05T06:09:24;5.80;;;4.03;;
4397;SDS011;2213;49.720;7.296;2022-12-05T06:11:54;5.40;;;3.40;;
4397;SDS011;2213;49.720;7.296;2022-12-05T06:14:24;3.67;;;3.13;;
4397;SDS011;2213;49.720;7.296;2022-12-05T06:16:53;7.67;;;4.43;;
4397;SDS011;2213;49.720;7.296;2022-12-05T06:19:23;6.30;;;4.00;;
4397;SDS011;2213;49.720;7.296;2022-12-05T06:21:52;5.23;;;3.63;;
4397;SDS011;2213;49.720;7.296;2022-12-05T06:24:22;5.20;;;3.80;;
4397;SDS011;2213;49.720;7.296;2022-12-05T06:26:53;8.73;;;4.10;;
4397;SDS011;2213;49.720;7.296;2022-12-05T06:29:23;8.27;;;4.70;;
4397;SDS011;2213;49.720;7.296;2022-12-05T06:31:59;8.73;;;6.07;;
4397;SDS011;2213;49.720;7.296;2022-12-05T06:34:28;5.10;;;3.87;;
4397;SDS011;2213;49.720;7.296;2022-12-05T06:36:58;6.60;;;3.93;;
4397;SDS011;2213;49.720;7.296;2022-12-05T06:39:30;5.17;;;4.20;;
4397;SDS011;2213;49.720;7.296;2022-12-05T06:42:00;5.33;;;3.70;;
4397;SDS011;2213;49.720;7.296;2022-12-05T06:44:31;4.80;;;3.67;;
4397;SDS011;2213;49.720;7.296;2022-12-05T06:47:01;4.90;;;3.97;;
4397;SDS011;2213;49.720;7.296;2022-12-05T06:49:30;4.00;;;3.60;;
4397;SDS011;2213;49.720;7.296;2022-12-05T06:52:03;6.90;;;4.37;;
4397;SDS011;2213;49.720;7.296;2022-12-05T06:54:34;5.00;;;3.40;;
4397;SDS011;2213;49.720;7.296;2022-12-05T06:57:04;6.50;;;4.70;;
4397;SDS011;2213;49.720;7.296;2022-12-05T06:59:35;5.00;;;3.87;;
4397;SDS011;2213;49.720;7.296;2022-12-05T07:02:05;6.53;;;4.60;;
4397;SDS011;2213;49.720;7.296;2022-12-05T07:04:34;5.83;;;4.03;;
4397;SDS011;2213;49.720;7.296;2022-12-05T07:07:03;6.40;;;4.47;;
4397;SDS011;2213;49.720;7.296;2022-12-05T07:09:32;6.10;;;4.10;;
4397;SDS011;2213;49.720;7.296;2022-12-05T07:12:19;6.63;;;4.63;;
4397;SDS011;2213;49.720;7.296;2022-12-05T07:14:48;6.37;;;3.50;;
4397;SDS011;2213;49.720;7.296;2022-12-05T07:17:18;5.87;;;4.37;;
4397;SDS011;2213;49.720;7.296;2022-12-05T07:19:47;7.90;;;3.93;;
4397;SDS011;2213;49.720;7.296;2022-12-05T07:22:18;6.43;;;4.00;;
4397;SDS011;2213;49.720;7.296;2022-12-05T07:24:51;5.33;;;4.10;;
4397;SDS011;2213;49.720;7.296;2022-12-05T07:27:20;6.70;;;4.23;;
4397;SDS011;2213;49.720;7.296;2022-12-05T07:29:53;9.47;;;4.40;;
4397;SDS011;2213;49.720;7.296;2022-12-05T07:32:23;5.23;;;3.33;;
4397;SDS011;2213;49.720;7.296;2022-12-05T07:34:52;7.90;;;4.00;;
4397;SDS011;2213;49.720;7.296;2022-12-05T07:37:22;5.67;;;4.07;;
4397;SDS011;2213;49.720;7.296;2022-12-05T07:39:53;7.20;;;4.00;;
4397;SDS011;2213;49.720;7.296;2022-12-05T07:42:22;9.30;;;4.73;;
4397;SDS011;2213;49.720;7.296;2022-12-05T07:44:52;8.67;;;4.70;;
4397;SDS011;2213;49.720;7.296;2022-12-05T07:47:21;6.97;;;4.47;;
4397;SDS011;2213;49.720;7.296;2022-12-05T07:49:50;9.13;;;4.33;;
4397;SDS011;2213;49.720;7.296;2022-12-05T07:52:20;5.20;;;3.50;;
4397;SDS011;2213;49.720;7.296;2022-12-05T07:54:49;8.67;;;3.80;;
4397;SDS011;2213;49.720;7.296;2022-12-05T07:57:20;7.50;;;4.27;;
4397;SDS011;2213;49.720;7.296;2022-12-05T07:59:50;6.90;;;3.77;;
4397;SDS011;2213;49.720;7.296;2022-12-05T08:02:20;7.90;;;4.67;;
4397;SDS011;2213;49.720;7.296;2022-12-05T08:04:50;6.37;;;3.87;;
4397;SDS011;2213;49.720;7.296;2022-12-05T08:07:18;7.00;;;4.83;;
4397;SDS011;2213;49.720;7.296;2022-12-05T08:09:48;9.30;;;4.77;;
4397;SDS011;2213;49.720;7.296;2022-12-05T08:12:18;8.37;;;4.60;;
4397;SDS011;2213;49.720;7.296;2022-12-05T08:14:49;10.23;;;5.30;;
4397;SDS011;2213;49.720;7.296;2022-12-05T08:17:18;9.50;;;4.50;;
4397;SDS011;2213;49.720;7.296;2022-12-05T08:19:48;10.67;;;5.40;;
4397;SDS011;2213;49.720;7.296;2022-12-05T08:22:18;7.30;;;5.07;;
4397;SDS011;2213;49.720;7.296;2022-12-05T08:24:48;9.83;;;5.03;;
4397;SDS011;2213;49.720;7.296;2022-12-05T08:27:23;9.77;;;5.13;;
4397;SDS011;2213;49.720;7.296;2022-12-05T08:29:52;9.07;;;5.33;;
4397;SDS011;2213;49.720;7.296;2022-12-05T08:32:23;9.57;;;5.43;;
4397;SDS011;2213;49.720;7.296;2022-12-05T08:34:54;8.30;;;4.70;;
4397;SDS011;2213;49.720;7.296;2022-12-05T08:37:23;5.87;;;4.97;;
4397;SDS011;2213;49.720;7.296;2022-12-05T08:39:52;8.97;;;5.63;;
4397;SDS011;2213;49.720;7.296;2022-12-05T08:42:23;12.30;;;5.20;;
4397;SDS011;2213;49.720;7.296;2022-12-05T08:44:52;9.53;;;5.73;;
4397;SDS011;2213;49.720;7.296;2022-12-05T08:47:23;8.73;;;4.97;;
4397;SDS011;2213;49.720;7.296;2022-12-05T08:49:53;10.70;;;5.93;;
4397;SDS011;2213;49.720;7.296;2022-12-05T08:52:23;7.03;;;5.17;;
4397;SDS011;2213;49.720;7.296;2022-12-05T08:54:53;9.47;;;5.57;;
4397;SDS011;2213;49.720;7.296;2022-12-05T08:57:24;9.67;;;5.57;;
4397;SDS011;2213;49.720;7.296;2022-12-05T08:59:55;10.63;;;5.50;;
4397;SDS011;2213;49.720;7.296;2022-12-05T09:02:25;23.03;;;5.97;;
4397;SDS011;2213;49.720;7.296;2022-12-05T09:04:55;12.90;;;5.90;;
4397;SDS011;2213;49.720;7.296;2022-12-05T09:07:44;13.13;;;6.20;;
4397;SDS011;2213;49.720;7.296;2022-12-05T09:10:14;8.97;;;5.13;;
4397;SDS011;2213;49.720;7.296;2022-12-05T09:12:44;11.10;;;5.73;;
4397;SDS011;2213;49.720;7.296;2022-12-05T09:15:16;9.50;;;5.30;;
4397;SDS011;2213;49.720;7.296;2022-12-05T09:17:45;6.40;;;4.00;;
4397;SDS011;2213;49.720;7.296;2022-12-05T09:20:14;7.73;;;4.40;;
4397;SDS011;2213;49.720;7.296;2022-12-05T09:22:43;9.33;;;4.93;;
4397;SDS011;2213;49.720;7.296;2022-12-05T09:25:12;7.90;;;5.07;;
4397;SDS011;2213;49.720;7.296;2022-12-05T09:27:41;10.03;;;4.30;;
4397;SDS011;2213;49.720;7.296;2022-12-05T09:30:19;10.73;;;4.57;;
4397;SDS011;2213;49.720;7.296;2022-12-05T09:35:49;7.33;;;4.00;;
4397;SDS011;2213;49.720;7.296;2022-12-05T09:38:18;8.30;;;4.27;;
4397;SDS011;2213;49.720;7.296;2022-12-05T09:40:48;5.80;;;4.43;;
4397;SDS011;2213;49.720;7.296;2022-12-05T09:43:33;10.40;;;5.20;;
4397;SDS011;2213;49.720;7.296;2022-12-05T09:46:18;5.97;;;4.07;;
4397;SDS011;2213;49.720;7.296;2022-12-05T09:49:02;11.10;;;4.60;;
4397;SDS011;2213;49.720;7.296;2022-12-05T09:51:35;8.83;;;4.73;;
4397;SDS011;2213;49.720;7.296;2022-12-05T09:54:20;13.17;;;5.60;;
4397;SDS011;2213;49.720;7.296;2022-12-05T09:56:52;8.53;;;4.70;;
4397;SDS011;2213;49.720;7.296;2022-12-05T09:59:25;8.80;;;4.83;;
4397;SDS011;2213;49.720;7.296;2022-12-05T10:01:56;7.97;;;3.70;;
4397;SDS011;2213;49.720;7.296;2022-12-05T10:04:46;8.30;;;3.90;;
4397;SDS011;2213;49.720;7.296;2022-12-05T10:07:27;6.00;;;4.70;;
4397;SDS011;2213;49.720;7.296;2022-12-05T10:10:11;8.03;;;4.10;;
4397;SDS011;2213;49.720;7.296;2022-12-05T10:13:17;5.83;;;3.97;;
4397;SDS011;2213;49.720;7.296;2022-12-05T10:16:09;6.53;;;4.17;;
4397;SDS011;2213;49.720;7.296;2022-12-05T10:18:44;7.77;;;4.70;;
4397;SDS011;2213;49.720;7.296;2022-12-05T10:21:21;10.70;;;4.57;;
4397;SDS011;2213;49.720;7.296;2022-12-05T10:23:58;11.37;;;4.50;;
4397;SDS011;2213;49.720;7.296;2022-12-05T10:26:29;8.93;;;5.10;;
4397;SDS011;2213;49.720;7.296;2022-12-05T10:29:08;8.10;;;4.63;;
4397;SDS011;2213;49.720;7.296;2022-12-05T10:31:53;7.60;;;4.10;;
4397;SDS011;2213;49.720;7.296;2022-12-05T10:34:33;7.73;;;4.33;;
4397;SDS011;2213;49.720;7.296;2022-12-05T10:37:08;8.10;;;4.77;;
4397;SDS011;2213;49.720;7.296;2022-12-05T10:39:43;5.90;;;3.83;;
4397;SDS011;2213;49.720;7.296;2022-12-05T10:42:14;8.60;;;4.87;;
4397;SDS011;2213;49.720;7.296;2022-12-05T10:44:47;6.53;;;3.80;;
4397;SDS011;2213;49.720;7.296;2022-12-05T10:47:26;9.13;;;4.50;;
4397;SDS011;2213;49.720;7.296;2022-12-05T10:49:55;6.87;;;4.20;;
4397;SDS011;2213;49.720;7.296;2022-12-05T10:52:31;7.10;;;4.77;;
4397;SDS011;2213;49.720;7.296;2022-12-05T10:55:03;10.30;;;4.90;;
4397;SDS011;2213;49.720;7.296;2022-12-05T10:57:36;11.37;;;4.83;;
4397;SDS011;2213;49.720;7.296;2022-12-05T11:00:09;7.80;;;4.20;;
4397;SDS011;2213;49.720;7.296;2022-12-05T11:02:42;7.43;;;4.97;;
4397;SDS011;2213;49.720;7.296;2022-12-05T11:05:16;10.97;;;5.00;;
4397;SDS011;2213;49.720;7.296;2022-12-05T11:07:56;8.03;;;5.17;;
4397;SDS011;2213;49.720;7.296;2022-12-05T11:10:29;10.43;;;4.53;;
4397;SDS011;2213;49.720;7.296;2022-12-05T11:13:13;7.10;;;4.77;;
4397;SDS011;2213;49.720;7.296;2022-12-05T11:15:45;8.87;;;4.97;;
4397;SDS011;2213;49.720;7.296;2022-12-05T11:18:26;9.13;;;4.20;;
4397;SDS011;2213;49.720;7.296;2022-12-05T11:21:07;7.70;;;4.30;;
4397;SDS011;2213;49.720;7.296;2022-12-05T11:23:39;4.80;;;3.57;;
4397;SDS011;2213;49.720;7.296;2022-12-05T11:26:15;6.40;;;4.60;;
4397;SDS011;2213;49.720;7.296;2022-12-05T11:29:01;6.13;;;4.30;;
4397;SDS011;2213;49.720;7.296;2022-12-05T11:31:31;7.20;;;4.40;;
4397;SDS011;2213;49.720;7.296;2022-12-05T11:34:08;26.20;;;8.77;;
4397;SDS011;2213;49.720;7.296;2022-12-05T11:36:47;8.13;;;4.77;;
4397;SDS011;2213;49.720;7.296;2022-12-05T11:39:21;11.47;;;3.80;;
4397;SDS011;2213;49.720;7.296;2022-12-05T11:42:05;5.63;;;4.23;;
4397;SDS011;2213;49.720;7.296;2022-12-05T11:45:13;4.90;;;3.60;;
4397;SDS011;2213;49.720;7.296;2022-12-05T11:48:05;6.50;;;4.40;;
4397;SDS011;2213;49.720;7.296;2022-12-05T11:51:02;4.80;;;3.87;;
4397;SDS011;2213;49.720;7.296;2022-12-05T12:00:45;7.27;;;3.77;;
4397;SDS011;2213;49.720;7.296;2022-12-05T12:06:39;7.80;;;4.03;;
4397;SDS011;2213;49.720;7.296;2022-12-05T12:09:29;10.00;;;3.80;;
4397;SDS011;2213;49.720;7.296;2022-12-05T12:12:14;7.70;;;3.57;;
4397;SDS011;2213;49.720;7.296;2022-12-05T12:14:57;3.27;;;2.97;;
4397;SDS011;2213;49.720;7.296;2022-12-05T12:17:48;4.20;;;3.40;;
4397;SDS011;2213;49.720;7.296;2022-12-05T12:20:31;9.67;;;3.47;;
4397;SDS011;2213;49.720;7.296;2022-12-05T12:23:25;4.10;;;3.10;;
4397;SDS011;2213;49.720;7.296;2022-12-05T12:26:10;4.60;;;3.53;;
4397;SDS011;2213;49.720;7.296;2022-12-05T12:28:51;5.33;;;3.13;;
4397;SDS011;2213;49.720;7.296;2022-12-05T12:31:41;8.83;;;3.80;;
4397;SDS011;2213;49.720;7.296;2022-12-05T12:34:37;7.10;;;3.90;;
4397;SDS011;2213;49.720;7.296;2022-12-05T12:37:26;5.63;;;3.63;;
4397;SDS011;2213;49.720;7.296;2022-12-05T12:40:13;4.50;;;3.10;;
4397;SDS011;2213;49.720;7.296;2022-12-05T12:42:53;4.60;;;2.87;;
4397;SDS011;2213;49.720;7.296;2022-12-05T12:45:55;4.57;;;3.73;;
4397;SDS011;2213;49.720;7.296;2022-12-05T12:49:12;6.43;;;3.87;;
4397;SDS011;2213;49.720;7.296;2022-12-05T12:52:03;5.10;;;3.90;;
4397;SDS011;2213;49.720;7.296;2022-12-05T12:54:42;7.27;;;4.20;;
4397;SDS011;2213;49.720;7.296;2022-12-05T12:57:33;8.30;;;4.97;;
4397;SDS011;2213;49.720;7.296;2022-12-05T13:00:22;4.67;;;3.47;;
4397;SDS011;2213;49.720;7.296;2022-12-05T13:03:05;8.33;;;5.03;;
4397;SDS011;2213;49.720;7.296;2022-12-05T13:05:44;6.23;;;4.20;;
4397;SDS011;2213;49.720;7.296;2022-12-05T13:08:22;7.30;;;4.50;;
4397;SDS011;2213;49.720;7.296;2022-12-05T13:10:57;4.90;;;3.60;;
4397;SDS011;2213;49.720;7.296;2022-12-05T13:13:33;7.63;;;4.10;;
4397;SDS011;2213;49.720;7.296;2022-12-05T13:16:07;4.80;;;3.67;;
4397;SDS011;2213;49.720;7.296;2022-12-05T13:18:50;6.83;;;3.77;;
4397;SDS011;2213;49.720;7.296;2022-12-05T13:21:21;7.10;;;3.90;;
4397;SDS011;2213;49.720;7.296;2022-12-05T13:23:52;5.27;;;3.40;;
4397;SDS011;2213;49.720;7.296;2022-12-05T13:26:29;6.03;;;4.07;;
4397;SDS011;2213;49.720;7.296;2022-12-05T13:29:03;5.60;;;3.90;;
4397;SDS011;2213;49.720;7.296;2022-12-05T13:31:33;5.70;;;3.73;;
4397;SDS011;2213;49.720;7.296;2022-12-05T13:34:05;8.03;;;3.83;;
4397;SDS011;2213;49.720;7.296;2022-12-05T13:37:17;5.23;;;3.70;;
4397;SDS011;2213;49.720;7.296;2022-12-05T13:43:14;5.77;;;3.33;;
4397;SDS011;2213;49.720;7.296;2022-12-05T13:45:56;4.50;;;3.60;;
4397;SDS011;2213;49.720;7.296;2022-12-05T13:48:34;16.53;;;5.63;;
4397;SDS011;2213;49.720;7.296;2022-12-05T13:51:08;11.20;;;4.73;;
4397;SDS011;2213;49.720;7.296;2022-12-05T13:53:48;6.43;;;4.30;;
4397;SDS011;2213;49.720;7.296;2022-12-05T13:56:44;6.80;;;4.90;;
4397;SDS011;2213;49.720;7.296;2022-12-05T14:02:50;8.87;;;5.47;;
4397;SDS011;2213;49.720;7.296;2022-12-05T14:05:34;8.97;;;5.47;;
4397;SDS011;2213;49.720;7.296;2022-12-05T14:11:22;8.30;;;5.77;;
4397;SDS011;2213;49.720;7.296;2022-12-05T14:13:52;10.20;;;6.43;;
4397;SDS011;2213;49.720;7.296;2022-12-05T14:16:41;10.93;;;5.73;;
4397;SDS011;2213;49.720;7.296;2022-12-05T14:19:17;12.50;;;6.60;;
4397;SDS011;2213;49.720;7.296;2022-12-05T14:29:00;10.30;;;5.60;;
4397;SDS011;2213;49.720;7.296;2022-12-05T14:32:09;14.87;;;7.07;;
4397;SDS011;2213;49.720;7.296;2022-12-05T14:34:55;8.80;;;5.30;;
4397;SDS011;2213;49.720;7.296;2022-12-05T14:37:32;6.93;;;5.03;;
4397;SDS011;2213;49.720;7.296;2022-12-05T14:40:15;9.10;;;5.83;;
4397;SDS011;2213;49.720;7.296;2022-12-05T14:42:52;5.20;;;4.50;;
4397;SDS011;2213;49.720;7.296;2022-12-05T14:45:29;9.10;;;5.40;;
4397;SDS011;2213;49.720;7.296;2022-12-05T14:48:22;9.13;;;6.30;;
4397;SDS011;2213;49.720;7.296;2022-12-05T14:50:59;9.03;;;5.13;;
4397;SDS011;2213;49.720;7.296;2022-12-05T14:53:51;9.70;;;5.23;;
4397;SDS011;2213;49.720;7.296;2022-12-05T14:56:23;8.10;;;5.00;;
4397;SDS011;2213;49.720;7.296;2022-12-05T14:58:55;8.23;;;5.37;;
4397;SDS011;2213;49.720;7.296;2022-12-05T15:01:34;17.93;;;4.93;;
4397;SDS011;2213;49.720;7.296;2022-12-05T15:04:16;7.37;;;4.63;;
4397;SDS011;2213;49.720;7.296;2022-12-05T15:06:51;8.77;;;5.87;;
4397;SDS011;2213;49.720;7.296;2022-12-05T15:09:30;6.67;;;4.83;;
4397;SDS011;2213;49.720;7.296;2022-12-05T15:12:12;6.50;;;4.53;;
4397;SDS011;2213;49.720;7.296;2022-12-05T15:14:49;6.87;;;4.90;;
4397;SDS011;2213;49.720;7.296;2022-12-05T15:17:29;9.13;;;5.93;;
4397;SDS011;2213;49.720;7.296;2022-12-05T15:20:07;6.50;;;5.30;;
4397;SDS011;2213;49.720;7.296;2022-12-05T15:22:43;8.23;;;5.27;;
4397;SDS011;2213;49.720;7.296;2022-12-05T15:28:02;6.43;;;5.00;;
4397;SDS011;2213;49.720;7.296;2022-12-05T15:30:45;6.40;;;4.80;;
4397;SDS011;2213;49.720;7.296;2022-12-05T15:33:23;7.40;;;4.90;;
4397;SDS011;2213;49.720;7.296;2022-12-05T15:35:54;5.80;;;4.50;;
4397;SDS011;2213;49.720;7.296;2022-12-05T15:38:25;8.00;;;5.40;;
4397;SDS011;2213;49.720;7.296;2022-12-05T15:41:03;11.27;;;5.10;;
4397;SDS011;2213;49.720;7.296;2022-12-05T15:43:42;6.20;;;4.70;;
4397;SDS011;2213;49.720;7.296;2022-12-05T15:46:24;6.43;;;4.60;;
4397;SDS011;2213;49.720;7.296;2022-12-05T15:48:55;9.70;;;5.10;;
4397;SDS011;2213;49.720;7.296;2022-12-05T15:51:29;6.07;;;4.73;;
4397;SDS011;2213;49.720;7.296;2022-12-05T15:54:04;10.53;;;3.90;;
4397;SDS011;2213;49.720;7.296;2022-12-05T15:56:43;6.40;;;4.37;;
4397;SDS011;2213;49.720;7.296;2022-12-05T15:59:20;6.33;;;4.40;;
4397;SDS011;2213;49.720;7.296;2022-12-05T16:01:56;8.87;;;4.73;;
4397;SDS011;2213;49.720;7.296;2022-12-05T16:04:33;8.00;;;4.90;;
4397;SDS011;2213;49.720;7.296;2022-12-05T16:07:09;7.23;;;4.50;;
4397;SDS011;2213;49.720;7.296;2022-12-05T16:09:41;4.43;;;3.90;;
4397;SDS011;2213;49.720;7.296;2022-12-05T16:12:19;4.60;;;3.43;;
4397;SDS011;2213;49.720;7.296;2022-12-05T16:14:54;4.70;;;3.57;;
4397;SDS011;2213;49.720;7.296;2022-12-05T16:17:36;3.90;;;3.50;;
4397;SDS011;2213;49.720;7.296;2022-12-05T16:20:10;5.67;;;3.13;;
4397;SDS011;2213;49.720;7.296;2022-12-05T16:22:50;3.57;;;3.17;;
4397;SDS011;2213;49.720;7.296;2022-12-05T16:25:22;6.00;;;4.17;;
4397;SDS011;2213;49.720;7.296;2022-12-05T16:27:56;5.37;;;4.10;;
4397;SDS011;2213;49.720;7.296;2022-12-05T16:30:28;6.90;;;4.07;;
4397;SDS011;2213;49.720;7.296;2022-12-05T16:33:00;5.57;;;3.60;;
4397;SDS011;2213;49.720;7.296;2022-12-05T16:35:34;8.43;;;4.30;;
4397;SDS011;2213;49.720;7.296;2022-12-05T16:38:13;6.57;;;4.40;;
4397;SDS011;2213;49.720;7.296;2022-12-05T16:40:53;7.53;;;4.93;;